sensor_id;sensor_type;location;lat;lon;timestamp;temperature;humidity
15274;DHT22;7738;49.532;11.156;2022-10-26T00:00:07;8.40;99.90
15274;DHT22;7738;49.532;11.156;2022-10-26T00:02:40;8.30;99.90
15274;DHT22;7738;49.532;11.156;2022-10-26T00:05:10;8.30;99.90
15274;DHT22;7738;49.532;11.156;2022-10-26T00:07:42;8.20;99.90
15274;DHT22;7738;49.532;11.156;2022-10-26T00:10:13;8.20;99.90
15274;DHT22;7738;49.532;11.156;2022-10-26T00:12:42;9.10;99.90
15274;DHT22;7738;49.532;11.156;2022-10-26T00:15:13;8.20;99.90
15274;DHT22;7738;49.532;11.156;2022-10-26T00:17:43;8.20;99.90
15274;DHT22;7738;49.532;11.156;2022-10-26T00:20:14;8.10;99.90
15274;DHT22;7738;49.532;11.156;2022-10-26T00:22:47;8.20;99.90
15274;DHT22;7738;49.532;11.156;2022-10-26T00:25:17;8.20;99.90
15274;DHT22;7738;49.532;11.156;2022-10-26T00:27:47;8.10;99.90
15274;DHT22;7738;49.532;11.156;2022-10-26T00:30:17;8.10;99.90
15274;DHT22;7738;49.532;11.156;2022-10-26T00:32:47;8.10;99.90
15274;DHT22;7738;49.532;11.156;2022-10-26T00:35:17;8.10;99.90
15274;DHT22;7738;49.532;11.156;2022-10-26T00:38:03;8.10;99.90
15274;DHT22;7738;49.532;11.156;2022-10-26T00:48:05;8.10;99.90
15274;DHT22;7738;49.532;11.156;2022-10-26T00:50:41;8.10;99.90
15274;DHT22;7738;49.532;11.156;2022-10-26T00:53:16;8.10;99.90
15274;DHT22;7738;49.532;11.156;2022-10-26T00:55:49;8.20;99.90
15274;DHT22;7738;49.532;11.156;2022-10-26T00:58:21;8.20;99.90
15274;DHT22;7738;49.532;11.156;2022-10-26T01:00:52;8.20;99.90
15274;DHT22;7738;49.532;11.156;2022-10-26T01:03:23;8.20;99.90
15274;DHT22;7738;49.532;11.156;2022-10-26T01:05:57;8.20;99.90
15274;DHT22;7738;49.532;11.156;2022-10-26T01:08:30;8.30;99.90
15274;DHT22;7738;49.532;11.156;2022-10-26T01:11:01;8.30;99.90
15274;DHT22;7738;49.532;11.156;2022-10-26T01:13:33;8.40;99.90
15274;DHT22;7738;49.532;11.156;2022-10-26T01:16:16;8.50;99.90
15274;DHT22;7738;49.532;11.156;2022-10-26T01:18:57;8.50;99.90
15274;DHT22;7738;49.532;11.156;2022-10-26T01:21:41;8.60;99.90
15274;DHT22;7738;49.532;11.156;2022-10-26T01:24:45;8.60;99.90
15274;DHT22;7738;49.532;11.156;2022-10-26T01:27:22;8.60;99.90
15274;DHT22;7738;49.532;11.156;2022-10-26T01:30:21;8.70;99.90
15274;DHT22;7738;49.532;11.156;2022-10-26T01:33:03;8.80;99.90
15274;DHT22;7738;49.532;11.156;2022-10-26T01:35:41;8.90;99.90
15274;DHT22;7738;49.532;11.156;2022-10-26T01:38:19;8.90;99.90
15274;DHT22;7738;49.532;11.156;2022-10-26T01:40:56;8.80;99.90
15274;DHT22;7738;49.532;11.156;2022-10-26T01:43:30;8.80;99.90
15274;DHT22;7738;49.532;11.156;2022-10-26T01:46:06;8.80;99.90
15274;DHT22;7738;49.532;11.156;2022-10-26T01:48:37;8.80;99.90
15274;DHT22;7738;49.532;11.156;2022-10-26T01:51:10;8.80;99.90
15274;DHT22;7738;49.532;11.156;2022-10-26T01:53:44;8.80;99.90
15274;DHT22;7738;49.532;11.156;2022-10-26T01:56:18;8.80;99.90
15274;DHT22;7738;49.532;11.156;2022-10-26T01:58:58;8.90;99.90
15274;DHT22;7738;49.532;11.156;2022-10-26T02:04:36;8.90;99.90
15274;DHT22;7738;49.532;11.156;2022-10-26T02:07:16;8.90;99.90
15274;DHT22;7738;49.532;11.156;2022-10-26T02:09:55;8.90;99.90
15274;DHT22;7738;49.532;11.156;2022-10-26T02:12:32;9.00;99.90
15274;DHT22;7738;49.532;11.156;2022-10-26T02:15:12;9.00;99.90
15274;DHT22;7738;49.532;11.156;2022-10-26T02:17:50;8.90;99.90
15274;DHT22;7738;49.532;11.156;2022-10-26T02:20:25;9.00;99.90
15274;DHT22;7738;49.532;11.156;2022-10-26T02:22:57;8.90;99.90
15274;DHT22;7738;49.532;11.156;2022-10-26T02:25:31;9.00;99.90
15274;DHT22;7738;49.532;11.156;2022-10-26T02:28:06;9.00;99.90
15274;DHT22;7738;49.532;11.156;2022-10-26T02:30:38;9.00;99.90
15274;DHT22;7738;49.532;11.156;2022-10-26T02:33:12;9.00;99.90
15274;DHT22;7738;49.532;11.156;2022-10-26T02:35:45;9.00;99.90
15274;DHT22;7738;49.532;11.156;2022-10-26T02:38:17;9.00;99.90
15274;DHT22;7738;49.532;11.156;2022-10-26T02:40:50;9.00;99.90
15274;DHT22;7738;49.532;11.156;2022-10-26T02:43:22;9.00;99.90
15274;DHT22;7738;49.532;11.156;2022-10-26T02:45:56;9.00;99.90
15274;DHT22;7738;49.532;11.156;2022-10-26T02:48:31;9.00;99.90
15274;DHT22;7738;49.532;11.156;2022-10-26T02:51:05;9.10;99.90
15274;DHT22;7738;49.532;11.156;2022-10-26T02:53:41;9.00;99.90
15274;DHT22;7738;49.532;11.156;2022-10-26T02:56:19;9.00;99.90
15274;DHT22;7738;49.532;11.156;2022-10-26T02:58:54;9.00;99.90
15274;DHT22;7738;49.532;11.156;2022-10-26T03:01:25;9.00;99.90
15274;DHT22;7738;49.532;11.156;2022-10-26T03:03:59;9.10;99.90
15274;DHT22;7738;49.532;11.156;2022-10-26T03:06:29;9.00;99.90
15274;DHT22;7738;49.532;11.156;2022-10-26T03:08:59;9.00;99.90
15274;DHT22;7738;49.532;11.156;2022-10-26T03:11:29;9.00;99.90
15274;DHT22;7738;49.532;11.156;2022-10-26T03:13:58;9.00;99.90
15274;DHT22;7738;49.532;11.156;2022-10-26T03:16:28;9.00;99.90
15274;DHT22;7738;49.532;11.156;2022-10-26T03:19:01;9.00;99.90
15274;DHT22;7738;49.532;11.156;2022-10-26T03:21:31;9.00;99.90
15274;DHT22;7738;49.532;11.156;2022-10-26T03:24:01;9.00;99.90
15274;DHT22;7738;49.532;11.156;2022-10-26T03:26:31;9.00;99.90
15274;DHT22;7738;49.532;11.156;2022-10-26T03:29:01;9.00;99.90
15274;DHT22;7738;49.532;11.156;2022-10-26T03:31:31;9.80;99.90
15274;DHT22;7738;49.532;11.156;2022-10-26T03:34:03;9.00;99.90
15274;DHT22;7738;49.532;11.156;2022-10-26T03:36:33;9.00;99.90
15274;DHT22;7738;49.532;11.156;2022-10-26T03:39:03;9.10;99.90
15274;DHT22;7738;49.532;11.156;2022-10-26T03:41:33;9.10;99.90
15274;DHT22;7738;49.532;11.156;2022-10-26T03:44:03;9.10;99.90
15274;DHT22;7738;49.532;11.156;2022-10-26T03:46:33;9.10;99.90
15274;DHT22;7738;49.532;11.156;2022-10-26T03:49:06;9.10;99.90
15274;DHT22;7738;49.532;11.156;2022-10-26T03:51:36;9.10;99.90
15274;DHT22;7738;49.532;11.156;2022-10-26T03:54:06;9.20;99.90
15274;DHT22;7738;49.532;11.156;2022-10-26T03:56:35;9.20;99.90
15274;DHT22;7738;49.532;11.156;2022-10-26T03:59:05;9.10;99.90
15274;DHT22;7738;49.532;11.156;2022-10-26T04:01:35;9.10;99.90
15274;DHT22;7738;49.532;11.156;2022-10-26T04:04:08;9.20;99.90
15274;DHT22;7738;49.532;11.156;2022-10-26T04:06:38;9.20;99.90
15274;DHT22;7738;49.532;11.156;2022-10-26T04:09:08;9.20;99.90
15274;DHT22;7738;49.532;11.156;2022-10-26T04:11:38;9.30;99.90
15274;DHT22;7738;49.532;11.156;2022-10-26T04:14:08;9.30;99.90
15274;DHT22;7738;49.532;11.156;2022-10-26T04:16:38;9.30;99.90
15274;DHT22;7738;49.532;11.156;2022-10-26T04:19:11;9.30;99.90
15274;DHT22;7738;49.532;11.156;2022-10-26T04:21:40;9.40;99.90
15274;DHT22;7738;49.532;11.156;2022-10-26T04:24:11;9.40;99.90
15274;DHT22;7738;49.532;11.156;2022-10-26T04:26:42;9.40;99.90
15274;DHT22;7738;49.532;11.156;2022-10-26T04:29:12;9.40;99.90
15274;DHT22;7738;49.532;11.156;2022-10-26T04:31:42;9.40;99.90
15274;DHT22;7738;49.532;11.156;2022-10-26T04:34:14;9.40;99.90
15274;DHT22;7738;49.532;11.156;2022-10-26T04:36:44;9.40;99.90
15274;DHT22;7738;49.532;11.156;2022-10-26T04:39:14;11.70;99.90
15274;DHT22;7738;49.532;11.156;2022-10-26T04:41:44;9.40;99.90
15274;DHT22;7738;49.532;11.156;2022-10-26T04:44:14;9.40;99.90
15274;DHT22;7738;49.532;11.156;2022-10-26T04:46:44;9.40;99.90
15274;DHT22;7738;49.532;11.156;2022-10-26T04:49:18;9.40;99.90
15274;DHT22;7738;49.532;11.156;2022-10-26T04:51:48;9.40;99.90
15274;DHT22;7738;49.532;11.156;2022-10-26T04:54:18;9.40;99.90
15274;DHT22;7738;49.532;11.156;2022-10-26T04:56:48;9.50;99.90
15274;DHT22;7738;49.532;11.156;2022-10-26T04:59:19;9.50;99.90
15274;DHT22;7738;49.532;11.156;2022-10-26T05:01:49;9.50;99.90
15274;DHT22;7738;49.532;11.156;2022-10-26T05:04:22;9.50;99.90
15274;DHT22;7738;49.532;11.156;2022-10-26T05:06:52;9.40;99.90
15274;DHT22;7738;49.532;11.156;2022-10-26T05:09:22;9.40;99.90
15274;DHT22;7738;49.532;11.156;2022-10-26T05:11:52;9.40;99.90
15274;DHT22;7738;49.532;11.156;2022-10-26T05:14:22;9.50;99.90
15274;DHT22;7738;49.532;11.156;2022-10-26T05:16:52;9.50;99.90
15274;DHT22;7738;49.532;11.156;2022-10-26T05:19:26;9.40;99.90
15274;DHT22;7738;49.532;11.156;2022-10-26T05:21:56;9.40;99.90
15274;DHT22;7738;49.532;11.156;2022-10-26T05:24:26;9.40;99.90
15274;DHT22;7738;49.532;11.156;2022-10-26T05:26:56;9.40;99.90
15274;DHT22;7738;49.532;11.156;2022-10-26T05:29:26;9.50;99.90
15274;DHT22;7738;49.532;11.156;2022-10-26T05:31:56;9.50;99.90
15274;DHT22;7738;49.532;11.156;2022-10-26T05:34:28;9.50;99.90
15274;DHT22;7738;49.532;11.156;2022-10-26T05:36:58;9.50;99.90
15274;DHT22;7738;49.532;11.156;2022-10-26T05:39:28;9.50;99.90
15274;DHT22;7738;49.532;11.156;2022-10-26T05:41:58;9.60;99.90
15274;DHT22;7738;49.532;11.156;2022-10-26T05:44:28;9.60;99.90
15274;DHT22;7738;49.532;11.156;2022-10-26T05:46:58;9.60;99.90
15274;DHT22;7738;49.532;11.156;2022-10-26T05:49:30;9.70;99.90
15274;DHT22;7738;49.532;11.156;2022-10-26T05:52:00;9.60;99.90
15274;DHT22;7738;49.532;11.156;2022-10-26T05:54:30;9.60;99.90
15274;DHT22;7738;49.532;11.156;2022-10-26T05:57:00;9.70;99.90
15274;DHT22;7738;49.532;11.156;2022-10-26T05:59:31;9.70;99.90
15274;DHT22;7738;49.532;11.156;2022-10-26T06:02:08;9.70;99.90
15274;DHT22;7738;49.532;11.156;2022-10-26T06:04:44;9.70;99.90
15274;DHT22;7738;49.532;11.156;2022-10-26T06:07:16;9.70;99.90
15274;DHT22;7738;49.532;11.156;2022-10-26T06:09:47;9.70;99.90
15274;DHT22;7738;49.532;11.156;2022-10-26T06:12:18;9.70;99.90
15274;DHT22;7738;49.532;11.156;2022-10-26T06:14:49;9.70;99.90
15274;DHT22;7738;49.532;11.156;2022-10-26T06:17:30;9.70;99.90
15274;DHT22;7738;49.532;11.156;2022-10-26T06:20:17;9.70;99.90
15274;DHT22;7738;49.532;11.156;2022-10-26T06:22:58;9.70;99.90
15274;DHT22;7738;49.532;11.156;2022-10-26T06:25:35;9.70;99.90
15274;DHT22;7738;49.532;11.156;2022-10-26T06:28:21;9.80;99.90
15274;DHT22;7738;49.532;11.156;2022-10-26T06:30:53;9.80;99.90
15274;DHT22;7738;49.532;11.156;2022-10-26T06:33:24;9.80;99.90
15274;DHT22;7738;49.532;11.156;2022-10-26T06:36:10;9.90;99.90
15274;DHT22;7738;49.532;11.156;2022-10-26T06:38:43;9.80;99.90
15274;DHT22;7738;49.532;11.156;2022-10-26T06:41:15;9.80;99.90
15274;DHT22;7738;49.532;11.156;2022-10-26T06:43:45;9.80;99.90
15274;DHT22;7738;49.532;11.156;2022-10-26T06:46:24;9.80;99.90
15274;DHT22;7738;49.532;11.156;2022-10-26T06:48:59;9.80;99.90
15274;DHT22;7738;49.532;11.156;2022-10-26T06:51:37;9.80;99.90
15274;DHT22;7738;49.532;11.156;2022-10-26T06:54:15;9.70;99.90
15274;DHT22;7738;49.532;11.156;2022-10-26T06:56:47;9.80;99.90
15274;DHT22;7738;49.532;11.156;2022-10-26T06:59:24;9.80;99.90
15274;DHT22;7738;49.532;11.156;2022-10-26T07:01:57;9.90;99.90
15274;DHT22;7738;49.532;11.156;2022-10-26T07:04:32;10.00;99.90
15274;DHT22;7738;49.532;11.156;2022-10-26T07:07:05;10.10;99.90
15274;DHT22;7738;49.532;11.156;2022-10-26T07:09:34;10.20;99.90
15274;DHT22;7738;49.532;11.156;2022-10-26T07:12:05;10.20;99.90
15274;DHT22;7738;49.532;11.156;2022-10-26T07:14:34;10.30;99.90
15274;DHT22;7738;49.532;11.156;2022-10-26T07:17:05;10.40;99.90
15274;DHT22;7738;49.532;11.156;2022-10-26T07:19:35;10.60;99.90
15274;DHT22;7738;49.532;11.156;2022-10-26T07:22:08;10.60;99.90
15274;DHT22;7738;49.532;11.156;2022-10-26T07:24:38;10.70;99.90
15274;DHT22;7738;49.532;11.156;2022-10-26T07:27:08;10.70;99.90
15274;DHT22;7738;49.532;11.156;2022-10-26T07:29:38;10.60;99.90
15274;DHT22;7738;49.532;11.156;2022-10-26T07:32:08;10.70;99.90
15274;DHT22;7738;49.532;11.156;2022-10-26T07:34:38;10.70;99.90
15274;DHT22;7738;49.532;11.156;2022-10-26T07:37:10;10.80;99.90
15274;DHT22;7738;49.532;11.156;2022-10-26T07:39:40;10.90;99.90
15274;DHT22;7738;49.532;11.156;2022-10-26T07:42:10;10.90;99.90
15274;DHT22;7738;49.532;11.156;2022-10-26T07:44:40;11.00;99.90
15274;DHT22;7738;49.532;11.156;2022-10-26T07:47:10;11.10;99.90
15274;DHT22;7738;49.532;11.156;2022-10-26T07:49:40;11.20;99.90
15274;DHT22;7738;49.532;11.156;2022-10-26T07:52:12;11.30;99.90
15274;DHT22;7738;49.532;11.156;2022-10-26T07:54:42;11.30;99.90
15274;DHT22;7738;49.532;11.156;2022-10-26T07:57:12;11.40;99.90
15274;DHT22;7738;49.532;11.156;2022-10-26T07:59:44;11.50;99.90
15274;DHT22;7738;49.532;11.156;2022-10-26T08:02:14;11.50;99.90
15274;DHT22;7738;49.532;11.156;2022-10-26T08:04:45;11.50;99.90
15274;DHT22;7738;49.532;11.156;2022-10-26T08:07:17;11.50;99.90
15274;DHT22;7738;49.532;11.156;2022-10-26T08:09:47;11.60;99.90
15274;DHT22;7738;49.532;11.156;2022-10-26T08:12:17;11.60;99.90
15274;DHT22;7738;49.532;11.156;2022-10-26T08:14:47;11.60;99.90
15274;DHT22;7738;49.532;11.156;2022-10-26T08:17:17;11.60;99.90
15274;DHT22;7738;49.532;11.156;2022-10-26T08:19:47;11.60;99.90
15274;DHT22;7738;49.532;11.156;2022-10-26T08:22:20;11.70;99.90
15274;DHT22;7738;49.532;11.156;2022-10-26T08:24:50;11.80;99.90
15274;DHT22;7738;49.532;11.156;2022-10-26T08:27:21;11.80;99.90
15274;DHT22;7738;49.532;11.156;2022-10-26T08:29:51;11.80;99.90
15274;DHT22;7738;49.532;11.156;2022-10-26T08:32:21;11.80;99.90
15274;DHT22;7738;49.532;11.156;2022-10-26T08:34:51;11.80;99.90
15274;DHT22;7738;49.532;11.156;2022-10-26T08:37:23;11.90;99.90
15274;DHT22;7738;49.532;11.156;2022-10-26T08:39:53;11.90;99.90
15274;DHT22;7738;49.532;11.156;2022-10-26T08:42:32;13.40;99.90
15274;DHT22;7738;49.532;11.156;2022-10-26T08:45:11;13.40;99.90
15274;DHT22;7738;49.532;11.156;2022-10-26T08:47:56;12.10;99.90
15274;DHT22;7738;49.532;11.156;2022-10-26T08:50:32;12.20;99.90
15274;DHT22;7738;49.532;11.156;2022-10-26T08:53:17;12.20;99.90
15274;DHT22;7738;49.532;11.156;2022-10-26T08:55:52;12.30;99.90
15274;DHT22;7738;49.532;11.156;2022-10-26T08:58:27;12.30;99.90
15274;DHT22;7738;49.532;11.156;2022-10-26T09:00:58;12.40;99.90
15274;DHT22;7738;49.532;11.156;2022-10-26T09:03:29;12.40;99.90
15274;DHT22;7738;49.532;11.156;2022-10-26T09:06:08;12.40;99.90
15274;DHT22;7738;49.532;11.156;2022-10-26T09:08:57;12.60;99.90
15274;DHT22;7738;49.532;11.156;2022-10-26T09:11:51;12.70;99.90
15274;DHT22;7738;49.532;11.156;2022-10-26T09:14:30;13.00;99.90
15274;DHT22;7738;49.532;11.156;2022-10-26T09:17:09;13.10;99.90
15274;DHT22;7738;49.532;11.156;2022-10-26T09:20:06;13.20;99.90
15274;DHT22;7738;49.532;11.156;2022-10-26T09:22:42;13.30;99.90
15274;DHT22;7738;49.532;11.156;2022-10-26T09:25:20;13.40;99.90
15274;DHT22;7738;49.532;11.156;2022-10-26T09:27:54;13.40;99.90
15274;DHT22;7738;49.532;11.156;2022-10-26T09:30:24;13.40;99.90
15274;DHT22;7738;49.532;11.156;2022-10-26T09:32:58;13.40;99.90
15274;DHT22;7738;49.532;11.156;2022-10-26T09:35:43;13.50;99.90
15274;DHT22;7738;49.532;11.156;2022-10-26T09:38:22;13.60;99.90
15274;DHT22;7738;49.532;11.156;2022-10-26T09:41:00;13.70;99.90
15274;DHT22;7738;49.532;11.156;2022-10-26T09:43:36;13.80;99.90
15274;DHT22;7738;49.532;11.156;2022-10-26T09:46:13;13.80;99.90
15274;DHT22;7738;49.532;11.156;2022-10-26T09:48:48;14.00;99.90
15274;DHT22;7738;49.532;11.156;2022-10-26T09:51:20;14.10;99.90
15274;DHT22;7738;49.532;11.156;2022-10-26T09:53:50;14.30;99.90
15274;DHT22;7738;49.532;11.156;2022-10-26T09:56:23;14.50;99.90
15274;DHT22;7738;49.532;11.156;2022-10-26T09:58:59;14.50;99.90
15274;DHT22;7738;49.532;11.156;2022-10-26T10:01:32;14.50;99.90
15274;DHT22;7738;49.532;11.156;2022-10-26T10:04:15;14.60;99.90
15274;DHT22;7738;49.532;11.156;2022-10-26T10:06:47;14.60;99.90
15274;DHT22;7738;49.532;11.156;2022-10-26T10:09:19;14.80;99.90
15274;DHT22;7738;49.532;11.156;2022-10-26T10:11:54;15.20;99.90
15274;DHT22;7738;49.532;11.156;2022-10-26T10:14:26;15.50;99.90
15274;DHT22;7738;49.532;11.156;2022-10-26T10:17:03;15.80;99.90
15274;DHT22;7738;49.532;11.156;2022-10-26T10:19:35;15.60;99.90
15274;DHT22;7738;49.532;11.156;2022-10-26T10:22:10;15.40;99.90
15274;DHT22;7738;49.532;11.156;2022-10-26T10:24:41;15.30;99.90
15274;DHT22;7738;49.532;11.156;2022-10-26T10:27:18;17.00;99.90
15274;DHT22;7738;49.532;11.156;2022-10-26T10:29:50;16.30;99.90
15274;DHT22;7738;49.532;11.156;2022-10-26T10:32:30;15.30;99.90
15274;DHT22;7738;49.532;11.156;2022-10-26T10:35:22;15.60;99.90
15274;DHT22;7738;49.532;11.156;2022-10-26T10:37:53;15.90;99.90
15274;DHT22;7738;49.532;11.156;2022-10-26T10:40:24;18.10;99.90
15274;DHT22;7738;49.532;11.156;2022-10-26T10:43:09;16.30;99.90
15274;DHT22;7738;49.532;11.156;2022-10-26T10:45:46;16.20;99.90
15274;DHT22;7738;49.532;11.156;2022-10-26T10:48:19;16.30;99.90
15274;DHT22;7738;49.532;11.156;2022-10-26T10:50:52;16.20;99.90
15274;DHT22;7738;49.532;11.156;2022-10-26T10:53:27;16.30;99.90
15274;DHT22;7738;49.532;11.156;2022-10-26T10:56:12;16.10;99.90
15274;DHT22;7738;49.532;11.156;2022-10-26T10:58:52;16.20;99.90
15274;DHT22;7738;49.532;11.156;2022-10-26T11:01:28;15.90;99.90
15274;DHT22;7738;49.532;11.156;2022-10-26T11:04:20;15.90;99.90
15274;DHT22;7738;49.532;11.156;2022-10-26T11:06:53;15.80;99.90
15274;DHT22;7738;49.532;11.156;2022-10-26T11:09:27;15.70;99.90
15274;DHT22;7738;49.532;11.156;2022-10-26T11:12:01;15.70;99.90
15274;DHT22;7738;49.532;11.156;2022-10-26T11:14:41;15.60;99.90
15274;DHT22;7738;49.532;11.156;2022-10-26T11:17:18;15.50;99.90
15274;DHT22;7738;49.532;11.156;2022-10-26T11:19:52;15.50;99.90
15274;DHT22;7738;49.532;11.156;2022-10-26T11:22:25;15.50;99.90
15274;DHT22;7738;49.532;11.156;2022-10-26T11:25:00;15.60;99.90
15274;DHT22;7738;49.532;11.156;2022-10-26T11:27:38;15.60;99.90
15274;DHT22;7738;49.532;11.156;2022-10-26T11:30:18;15.50;99.90
15274;DHT22;7738;49.532;11.156;2022-10-26T11:32:52;15.50;99.90
15274;DHT22;7738;49.532;11.156;2022-10-26T11:35:26;15.50;99.90
15274;DHT22;7738;49.532;11.156;2022-10-26T11:38:01;15.40;99.90
15274;DHT22;7738;49.532;11.156;2022-10-26T11:40:37;18.30;99.90
15274;DHT22;7738;49.532;11.156;2022-10-26T11:43:13;15.40;99.90
15274;DHT22;7738;49.532;11.156;2022-10-26T11:45:56;15.30;99.90
15274;DHT22;7738;49.532;11.156;2022-10-26T11:48:31;15.30;99.90
15274;DHT22;7738;49.532;11.156;2022-10-26T11:51:04;17.30;99.90
15274;DHT22;7738;49.532;11.156;2022-10-26T11:53:42;15.40;99.90
15274;DHT22;7738;49.532;11.156;2022-10-26T11:56:18;15.60;99.90
15274;DHT22;7738;49.532;11.156;2022-10-26T11:58:51;15.60;99.90
15274;DHT22;7738;49.532;11.156;2022-10-26T12:01:25;15.80;99.90
15274;DHT22;7738;49.532;11.156;2022-10-26T12:03:57;15.80;99.90
15274;DHT22;7738;49.532;11.156;2022-10-26T12:06:30;16.00;99.90
15274;DHT22;7738;49.532;11.156;2022-10-26T12:09:06;16.50;99.90
15274;DHT22;7738;49.532;11.156;2022-10-26T12:11:40;16.80;99.90
15274;DHT22;7738;49.532;11.156;2022-10-26T12:14:18;17.10;99.90
15274;DHT22;7738;49.532;11.156;2022-10-26T12:16:58;17.10;99.90
15274;DHT22;7738;49.532;11.156;2022-10-26T12:19:38;17.80;99.90
15274;DHT22;7738;49.532;11.156;2022-10-26T12:22:12;18.30;99.90
15274;DHT22;7738;49.532;11.156;2022-10-26T12:24:43;18.60;99.90
15274;DHT22;7738;49.532;11.156;2022-10-26T12:27:29;18.30;99.90
15274;DHT22;7738;49.532;11.156;2022-10-26T12:30:23;17.80;99.90
15274;DHT22;7738;49.532;11.156;2022-10-26T12:32:57;17.80;99.90
15274;DHT22;7738;49.532;11.156;2022-10-26T12:35:31;17.60;99.90
15274;DHT22;7738;49.532;11.156;2022-10-26T12:38:02;17.50;99.90
15274;DHT22;7738;49.532;11.156;2022-10-26T12:41:07;17.50;99.90
15274;DHT22;7738;49.532;11.156;2022-10-26T12:43:42;17.30;99.90
15274;DHT22;7738;49.532;11.156;2022-10-26T12:46:37;17.20;99.90
15274;DHT22;7738;49.532;11.156;2022-10-26T12:58:45;17.00;99.90
15274;DHT22;7738;49.532;11.156;2022-10-26T13:01:55;16.90;99.90
15274;DHT22;7738;49.532;11.156;2022-10-26T13:04:48;16.70;99.90
15274;DHT22;7738;49.532;11.156;2022-10-26T13:07:24;16.70;99.90
15274;DHT22;7738;49.532;11.156;2022-10-26T13:09:58;16.60;99.90
15274;DHT22;7738;49.532;11.156;2022-10-26T13:12:35;16.70;99.90
15274;DHT22;7738;49.532;11.156;2022-10-26T13:15:19;20.20;99.90
15274;DHT22;7738;49.532;11.156;2022-10-26T13:18:00;16.90;99.90
15274;DHT22;7738;49.532;11.156;2022-10-26T13:20:31;17.00;99.90
15274;DHT22;7738;49.532;11.156;2022-10-26T13:23:14;17.20;99.90
15274;DHT22;7738;49.532;11.156;2022-10-26T13:26:00;17.00;99.90
15274;DHT22;7738;49.532;11.156;2022-10-26T13:28:41;17.00;99.90
15274;DHT22;7738;49.532;11.156;2022-10-26T13:31:19;17.00;99.90
15274;DHT22;7738;49.532;11.156;2022-10-26T13:34:13;17.10;99.90
15274;DHT22;7738;49.532;11.156;2022-10-26T13:36:48;17.30;99.90
15274;DHT22;7738;49.532;11.156;2022-10-26T13:39:24;17.60;99.90
15274;DHT22;7738;49.532;11.156;2022-10-26T13:41:55;18.00;99.90
15274;DHT22;7738;49.532;11.156;2022-10-26T13:44:29;18.10;99.90
15274;DHT22;7738;49.532;11.156;2022-10-26T13:47:05;18.00;99.90
15274;DHT22;7738;49.532;11.156;2022-10-26T13:49:40;18.00;99.90
15274;DHT22;7738;49.532;11.156;2022-10-26T13:52:15;18.10;99.90
15274;DHT22;7738;49.532;11.156;2022-10-26T13:54:54;19.90;99.90
15274;DHT22;7738;49.532;11.156;2022-10-26T13:57:29;21.00;99.90
15274;DHT22;7738;49.532;11.156;2022-10-26T14:00:07;18.60;99.90
15274;DHT22;7738;49.532;11.156;2022-10-26T14:02:40;18.60;99.90
15274;DHT22;7738;49.532;11.156;2022-10-26T14:05:12;18.50;99.90
15274;DHT22;7738;49.532;11.156;2022-10-26T14:07:44;18.40;99.90
15274;DHT22;7738;49.532;11.156;2022-10-26T14:10:27;18.40;99.90
15274;DHT22;7738;49.532;11.156;2022-10-26T14:12:58;18.40;99.90
15274;DHT22;7738;49.532;11.156;2022-10-26T14:15:30;19.30;99.90
15274;DHT22;7738;49.532;11.156;2022-10-26T14:18:02;18.30;99.90
15274;DHT22;7738;49.532;11.156;2022-10-26T14:20:32;18.20;99.90
15274;DHT22;7738;49.532;11.156;2022-10-26T14:23:02;18.20;99.90
15274;DHT22;7738;49.532;11.156;2022-10-26T14:25:34;18.20;99.90
15274;DHT22;7738;49.532;11.156;2022-10-26T14:28:21;18.10;99.90
15274;DHT22;7738;49.532;11.156;2022-10-26T14:30:52;18.00;99.90
15274;DHT22;7738;49.532;11.156;2022-10-26T14:33:26;18.00;99.90
15274;DHT22;7738;49.532;11.156;2022-10-26T14:35:56;17.80;99.90
15274;DHT22;7738;49.532;11.156;2022-10-26T14:38:29;18.80;99.90
15274;DHT22;7738;49.532;11.156;2022-10-26T14:41:05;17.60;99.90
15274;DHT22;7738;49.532;11.156;2022-10-26T14:43:35;17.50;99.90
15274;DHT22;7738;49.532;11.156;2022-10-26T14:46:11;17.40;99.90
15274;DHT22;7738;49.532;11.156;2022-10-26T14:48:51;17.30;99.90
15274;DHT22;7738;49.532;11.156;2022-10-26T14:51:25;17.20;99.90
15274;DHT22;7738;49.532;11.156;2022-10-26T14:53:57;17.00;99.90
15274;DHT22;7738;49.532;11.156;2022-10-26T14:56:38;17.00;99.90
15274;DHT22;7738;49.532;11.156;2022-10-26T14:59:10;16.80;99.90
15274;DHT22;7738;49.532;11.156;2022-10-26T15:01:49;16.70;99.90
15274;DHT22;7738;49.532;11.156;2022-10-26T15:04:38;16.60;99.90
15274;DHT22;7738;49.532;11.156;2022-10-26T15:07:14;16.50;99.90
15274;DHT22;7738;49.532;11.156;2022-10-26T15:09:45;16.40;99.90
15274;DHT22;7738;49.532;11.156;2022-10-26T15:12:27;17.10;99.90
15274;DHT22;7738;49.532;11.156;2022-10-26T15:15:13;16.20;99.90
15274;DHT22;7738;49.532;11.156;2022-10-26T15:17:50;16.10;99.90
15274;DHT22;7738;49.532;11.156;2022-10-26T15:20:22;16.00;99.90
15274;DHT22;7738;49.532;11.156;2022-10-26T15:22:54;15.90;99.90
15274;DHT22;7738;49.532;11.156;2022-10-26T15:25:27;15.90;99.90
15274;DHT22;7738;49.532;11.156;2022-10-26T15:28:17;15.80;99.90
15274;DHT22;7738;49.532;11.156;2022-10-26T15:31:00;15.80;99.90
15274;DHT22;7738;49.532;11.156;2022-10-26T15:33:31;15.70;99.90
15274;DHT22;7738;49.532;11.156;2022-10-26T15:36:14;17.10;99.90
15274;DHT22;7738;49.532;11.156;2022-10-26T15:38:45;15.50;99.90
15274;DHT22;7738;49.532;11.156;2022-10-26T15:41:17;15.50;99.90
15274;DHT22;7738;49.532;11.156;2022-10-26T15:43:53;15.40;99.90
15274;DHT22;7738;49.532;11.156;2022-10-26T15:46:23;17.10;99.90
15274;DHT22;7738;49.532;11.156;2022-10-26T15:48:56;16.30;99.90
15274;DHT22;7738;49.532;11.156;2022-10-26T15:51:26;15.20;99.90
15274;DHT22;7738;49.532;11.156;2022-10-26T15:53:57;15.20;99.90
15274;DHT22;7738;49.532;11.156;2022-10-26T15:56:27;15.10;99.90
15274;DHT22;7738;49.532;11.156;2022-10-26T15:59:01;15.10;99.90
15274;DHT22;7738;49.532;11.156;2022-10-26T16:01:31;15.10;99.90
15274;DHT22;7738;49.532;11.156;2022-10-26T16:04:01;15.00;99.90
15274;DHT22;7738;49.532;11.156;2022-10-26T16:06:33;15.00;99.90
15274;DHT22;7738;49.532;11.156;2022-10-26T16:09:06;14.90;99.90
15274;DHT22;7738;49.532;11.156;2022-10-26T16:11:36;14.90;99.90
15274;DHT22;7738;49.532;11.156;2022-10-26T16:14:14;14.80;99.90
15274;DHT22;7738;49.532;11.156;2022-10-26T16:16:44;14.80;99.90
15274;DHT22;7738;49.532;11.156;2022-10-26T16:19:14;14.80;99.90
15274;DHT22;7738;49.532;11.156;2022-10-26T16:21:57;14.70;99.90
15274;DHT22;7738;49.532;11.156;2022-10-26T16:24:28;14.60;99.90
15274;DHT22;7738;49.532;11.156;2022-10-26T16:26:59;14.60;99.90
15274;DHT22;7738;49.532;11.156;2022-10-26T16:29:31;14.60;99.90
15274;DHT22;7738;49.532;11.156;2022-10-26T16:32:01;14.60;99.90
15274;DHT22;7738;49.532;11.156;2022-10-26T16:34:31;14.60;99.90
15274;DHT22;7738;49.532;11.156;2022-10-26T16:37:01;14.60;99.90
15274;DHT22;7738;49.532;11.156;2022-10-26T16:39:31;14.60;99.90
15274;DHT22;7738;49.532;11.156;2022-10-26T16:42:01;14.70;99.90